FLF weather

Flensburg-Schäferhaus Airport
Flensburg, Schleswig-Holstein, Germany

Public forecast

Using degrees Celsius for public forecast. Weather courtesy of forecast.io.

METAR (pilot weather report)

Report is more than 6 hours old.

Closest report is Sønderborg Airport, 18.3 nm (33.9 km) NE. Retrieved 2019/08/24 09:50 UTC (9 hours ago):

EKSB 240950Z 12009KT CAVOK 22/16 Q1026

TAF (pilot weather forecast)

Forecast is more than 12 hours old.

Closest forecast is Sønderborg Airport, 18.3 nm (33.9 km) NE. Retrieved 2016/01/27 09:03 UTC (4 years ago):

TAF TAF EKSB 270856Z 2709/2721 23022KT 5000 -RA BR BKN008 TEMPO 2709/2721 24025G40KT 2000 RADZ BKN004